New Vineyard, Maine
Current Conditions -  °F | °C
As of 9:55 PM on Tuesday 25 Nov 2014 (Local Time) from KWVL Reporting Station
Clear Clear  
Wind Chill: 42°   Ceiling: Unl
Heat Index: 45°   Visibility: 10mi
Dew Point: 25°   Wind: 5mph
Humidity: 46%   Direction: 250°WSW
Pressure: 29.97"   Gusts: NA
Location:  44.8°N, 70.11°W
Report Text: KWVL 260255Z 25004KT 10SM CLR 07/M04 A2997 RMK AO1 52024
Loading
Personal Weather Stations






























Interactive Weather Map New forecast layout! Learn more

10-Day Weather Forecast

Advertisements
Track Severe Weather on mobile